sensor_id;sensor_type;location;lat;lon;timestamp;P1;durP1;ratioP1;P2;durP2;ratioP2
1593;SDS011;790;47.000;16.084;2023-04-25T00:00:43;3.60;;;1.70;;
1593;SDS011;790;47.000;16.084;2023-04-25T00:03:10;1.80;;;1.70;;
1593;SDS011;790;47.000;16.084;2023-04-25T00:05:41;1.70;;;1.60;;
1593;SDS011;790;47.000;16.084;2023-04-25T00:08:08;3.83;;;1.60;;
1593;SDS011;790;47.000;16.084;2023-04-25T00:10:35;1.87;;;1.60;;
1593;SDS011;790;47.000;16.084;2023-04-25T00:13:03;1.60;;;1.60;;
1593;SDS011;790;47.000;16.084;2023-04-25T00:15:30;1.70;;;1.60;;
1593;SDS011;790;47.000;16.084;2023-04-25T00:17:57;1.73;;;1.63;;
1593;SDS011;790;47.000;16.084;2023-04-25T00:20:24;2.77;;;1.80;;
1593;SDS011;790;47.000;16.084;2023-04-25T00:22:53;2.07;;;1.50;;
1593;SDS011;790;47.000;16.084;2023-04-25T00:25:21;2.13;;;1.57;;
1593;SDS011;790;47.000;16.084;2023-04-25T00:27:48;1.77;;;1.70;;
1593;SDS011;790;47.000;16.084;2023-04-25T00:30:15;1.90;;;1.70;;
1593;SDS011;790;47.000;16.084;2023-04-25T00:32:42;1.70;;;1.60;;
1593;SDS011;790;47.000;16.084;2023-04-25T00:35:09;2.37;;;1.90;;
1593;SDS011;790;47.000;16.084;2023-04-25T00:37:36;1.70;;;1.70;;
1593;SDS011;790;47.000;16.084;2023-04-25T00:40:06;2.43;;;1.87;;
1593;SDS011;790;47.000;16.084;2023-04-25T00:42:34;1.73;;;1.63;;
1593;SDS011;790;47.000;16.084;2023-04-25T00:45:02;2.10;;;2.00;;
1593;SDS011;790;47.000;16.084;2023-04-25T00:47:32;2.30;;;1.67;;
1593;SDS011;790;47.000;16.084;2023-04-25T00:50:00;2.20;;;1.80;;
1593;SDS011;790;47.000;16.084;2023-04-25T00:52:28;4.93;;;2.50;;
1593;SDS011;790;47.000;16.084;2023-04-25T00:54:55;2.37;;;1.80;;
1593;SDS011;790;47.000;16.084;2023-04-25T00:57:23;1.90;;;1.80;;
1593;SDS011;790;47.000;16.084;2023-04-25T00:59:51;1.80;;;1.70;;
1593;SDS011;790;47.000;16.084;2023-04-25T01:02:19;2.70;;;2.50;;
1593;SDS011;790;47.000;16.084;2023-04-25T01:04:47;4.97;;;2.30;;
1593;SDS011;790;47.000;16.084;2023-04-25T01:07:14;2.10;;;2.00;;
1593;SDS011;790;47.000;16.084;2023-04-25T01:09:42;2.67;;;2.47;;
1593;SDS011;790;47.000;16.084;2023-04-25T01:12:09;2.07;;;1.93;;
1593;SDS011;790;47.000;16.084;2023-04-25T01:14:38;4.27;;;2.00;;
1593;SDS011;790;47.000;16.084;2023-04-25T01:17:05;9.20;;;2.53;;
1593;SDS011;790;47.000;16.084;2023-04-25T01:19:34;2.03;;;1.93;;
1593;SDS011;790;47.000;16.084;2023-04-25T01:22:02;2.53;;;2.30;;
1593;SDS011;790;47.000;16.084;2023-04-25T01:24:30;2.63;;;2.43;;
1593;SDS011;790;47.000;16.084;2023-04-25T01:26:59;2.43;;;2.07;;
1593;SDS011;790;47.000;16.084;2023-04-25T01:29:27;2.30;;;2.10;;
1593;SDS011;790;47.000;16.084;2023-04-25T01:31:55;2.97;;;1.90;;
1593;SDS011;790;47.000;16.084;2023-04-25T01:34:23;2.40;;;2.20;;
1593;SDS011;790;47.000;16.084;2023-04-25T01:36:51;2.77;;;2.30;;
1593;SDS011;790;47.000;16.084;2023-04-25T01:39:20;2.77;;;2.67;;
1593;SDS011;790;47.000;16.084;2023-04-25T01:41:47;4.03;;;2.50;;
1593;SDS011;790;47.000;16.084;2023-04-25T01:44:15;2.67;;;2.57;;
1593;SDS011;790;47.000;16.084;2023-04-25T01:46:43;5.33;;;2.40;;
1593;SDS011;790;47.000;16.084;2023-04-25T01:49:10;4.20;;;2.40;;
1593;SDS011;790;47.000;16.084;2023-04-25T01:51:37;2.80;;;2.50;;
1593;SDS011;790;47.000;16.084;2023-04-25T01:54:04;3.20;;;2.97;;
1593;SDS011;790;47.000;16.084;2023-04-25T01:56:36;3.60;;;2.33;;
1593;SDS011;790;47.000;16.084;2023-04-25T01:59:03;3.00;;;2.80;;
1593;SDS011;790;47.000;16.084;2023-04-25T02:01:31;3.00;;;2.60;;
1593;SDS011;790;47.000;16.084;2023-04-25T02:03:58;2.50;;;2.30;;
1593;SDS011;790;47.000;16.084;2023-04-25T02:06:25;3.07;;;2.87;;
1593;SDS011;790;47.000;16.084;2023-04-25T02:08:52;2.73;;;2.57;;
1593;SDS011;790;47.000;16.084;2023-04-25T02:11:19;2.70;;;2.50;;
1593;SDS011;790;47.000;16.084;2023-04-25T02:13:48;3.70;;;2.60;;
1593;SDS011;790;47.000;16.084;2023-04-25T02:16:15;2.20;;;2.10;;
1593;SDS011;790;47.000;16.084;2023-04-25T02:18:43;3.30;;;3.10;;
1593;SDS011;790;47.000;16.084;2023-04-25T02:21:12;2.97;;;2.77;;
1593;SDS011;790;47.000;16.084;2023-04-25T02:23:39;3.13;;;2.83;;
1593;SDS011;790;47.000;16.084;2023-04-25T02:26:06;3.20;;;2.60;;
1593;SDS011;790;47.000;16.084;2023-04-25T02:28:33;2.60;;;2.50;;
1593;SDS011;790;47.000;16.084;2023-04-25T02:31:02;2.47;;;2.37;;
1593;SDS011;790;47.000;16.084;2023-04-25T02:33:30;3.03;;;2.10;;
1593;SDS011;790;47.000;16.084;2023-04-25T02:35:58;2.33;;;2.20;;
1593;SDS011;790;47.000;16.084;2023-04-25T02:38:26;2.60;;;2.40;;
1593;SDS011;790;47.000;16.084;2023-04-25T02:40:53;2.93;;;2.63;;
1593;SDS011;790;47.000;16.084;2023-04-25T02:43:20;3.63;;;2.37;;
1593;SDS011;790;47.000;16.084;2023-04-25T02:45:47;3.23;;;2.27;;
1593;SDS011;790;47.000;16.084;2023-04-25T02:48:16;3.93;;;2.30;;
1593;SDS011;790;47.000;16.084;2023-04-25T02:50:43;2.50;;;2.30;;
1593;SDS011;790;47.000;16.084;2023-04-25T02:53:11;2.63;;;2.43;;
1593;SDS011;790;47.000;16.084;2023-04-25T02:55:39;3.03;;;2.60;;
1593;SDS011;790;47.000;16.084;2023-04-25T02:58:06;2.50;;;2.30;;
1593;SDS011;790;47.000;16.084;2023-04-25T03:00:33;2.20;;;2.00;;
1593;SDS011;790;47.000;16.084;2023-04-25T03:03:02;3.03;;;2.83;;
1593;SDS011;790;47.000;16.084;2023-04-25T03:05:31;4.73;;;2.50;;
1593;SDS011;790;47.000;16.084;2023-04-25T03:07:58;2.77;;;2.57;;
1593;SDS011;790;47.000;16.084;2023-04-25T03:10:25;2.23;;;2.17;;
1593;SDS011;790;47.000;16.084;2023-04-25T03:12:53;2.53;;;2.33;;
1593;SDS011;790;47.000;16.084;2023-04-25T03:15:20;2.10;;;2.00;;
1593;SDS011;790;47.000;16.084;2023-04-25T03:17:48;2.20;;;2.10;;
1593;SDS011;790;47.000;16.084;2023-04-25T03:20:15;2.50;;;2.40;;
1593;SDS011;790;47.000;16.084;2023-04-25T03:22:43;2.47;;;2.27;;
1593;SDS011;790;47.000;16.084;2023-04-25T03:25:11;2.67;;;2.57;;
1593;SDS011;790;47.000;16.084;2023-04-25T03:27:38;2.70;;;2.60;;
1593;SDS011;790;47.000;16.084;2023-04-25T03:30:06;2.60;;;2.50;;
1593;SDS011;790;47.000;16.084;2023-04-25T03:32:33;2.47;;;2.27;;
1593;SDS011;790;47.000;16.084;2023-04-25T03:35:01;4.03;;;2.27;;
1593;SDS011;790;47.000;16.084;2023-04-25T03:37:28;3.23;;;2.23;;
1593;SDS011;790;47.000;16.084;2023-04-25T03:39:57;4.63;;;2.37;;
1593;SDS011;790;47.000;16.084;2023-04-25T03:42:24;2.60;;;2.20;;
1593;SDS011;790;47.000;16.084;2023-04-25T03:44:51;3.07;;;2.23;;
1593;SDS011;790;47.000;16.084;2023-04-25T03:47:18;2.30;;;2.20;;
1593;SDS011;790;47.000;16.084;2023-04-25T03:49:45;2.10;;;2.00;;
1593;SDS011;790;47.000;16.084;2023-04-25T03:52:14;2.23;;;2.13;;
1593;SDS011;790;47.000;16.084;2023-04-25T03:54:41;1.83;;;1.73;;
1593;SDS011;790;47.000;16.084;2023-04-25T03:57:10;2.37;;;2.00;;
1593;SDS011;790;47.000;16.084;2023-04-25T03:59:37;1.90;;;1.80;;
1593;SDS011;790;47.000;16.084;2023-04-25T04:02:04;2.73;;;1.97;;
1593;SDS011;790;47.000;16.084;2023-04-25T04:04:32;1.47;;;1.47;;
1593;SDS011;790;47.000;16.084;2023-04-25T04:06:59;1.90;;;1.80;;
1593;SDS011;790;47.000;16.084;2023-04-25T04:09:26;2.20;;;2.10;;
1593;SDS011;790;47.000;16.084;2023-04-25T04:11:53;4.77;;;1.57;;
1593;SDS011;790;47.000;16.084;2023-04-25T04:14:22;1.93;;;1.87;;
1593;SDS011;790;47.000;16.084;2023-04-25T04:16:50;1.83;;;1.73;;
1593;SDS011;790;47.000;16.084;2023-04-25T04:19:17;15.50;;;9.37;;
1593;SDS011;790;47.000;16.084;2023-04-25T04:21:45;12.00;;;6.27;;
1593;SDS011;790;47.000;16.084;2023-04-25T04:24:12;7.20;;;6.40;;
1593;SDS011;790;47.000;16.084;2023-04-25T04:26:40;47.20;;;35.17;;
1593;SDS011;790;47.000;16.084;2023-04-25T04:29:10;36.60;;;26.00;;
1593;SDS011;790;47.000;16.084;2023-04-25T04:31:38;23.73;;;18.23;;
1593;SDS011;790;47.000;16.084;2023-04-25T04:34:05;8.17;;;7.37;;
1593;SDS011;790;47.000;16.084;2023-04-25T04:36:32;4.80;;;4.40;;
1593;SDS011;790;47.000;16.084;2023-04-25T04:38:59;3.00;;;2.87;;
1593;SDS011;790;47.000;16.084;2023-04-25T04:41:28;2.37;;;2.27;;
1593;SDS011;790;47.000;16.084;2023-04-25T04:43:55;2.97;;;2.77;;
1593;SDS011;790;47.000;16.084;2023-04-25T04:46:22;2.47;;;2.37;;
1593;SDS011;790;47.000;16.084;2023-04-25T04:48:52;2.40;;;2.10;;
1593;SDS011;790;47.000;16.084;2023-04-25T04:51:21;1.90;;;1.80;;
1593;SDS011;790;47.000;16.084;2023-04-25T04:53:48;3.23;;;2.10;;
1593;SDS011;790;47.000;16.084;2023-04-25T04:56:15;3.07;;;2.20;;
1593;SDS011;790;47.000;16.084;2023-04-25T04:58:42;2.20;;;2.03;;
1593;SDS011;790;47.000;16.084;2023-04-25T05:01:09;2.03;;;1.97;;
1593;SDS011;790;47.000;16.084;2023-04-25T05:03:37;2.33;;;1.80;;
1593;SDS011;790;47.000;16.084;2023-04-25T05:06:05;1.73;;;1.63;;
1593;SDS011;790;47.000;16.084;2023-04-25T05:08:34;1.90;;;1.80;;
1593;SDS011;790;47.000;16.084;2023-04-25T05:11:01;3.73;;;1.83;;
1593;SDS011;790;47.000;16.084;2023-04-25T05:13:28;2.20;;;2.10;;
1593;SDS011;790;47.000;16.084;2023-04-25T05:15:55;2.57;;;2.20;;
1593;SDS011;790;47.000;16.084;2023-04-25T05:18:22;5.47;;;2.20;;
1593;SDS011;790;47.000;16.084;2023-04-25T05:20:49;2.53;;;2.37;;
1593;SDS011;790;47.000;16.084;2023-04-25T05:23:18;3.60;;;2.00;;
1593;SDS011;790;47.000;16.084;2023-04-25T05:25:45;2.17;;;2.07;;
1593;SDS011;790;47.000;16.084;2023-04-25T05:28:13;1.90;;;1.80;;
1593;SDS011;790;47.000;16.084;2023-04-25T05:30:40;2.03;;;1.83;;
1593;SDS011;790;47.000;16.084;2023-04-25T05:33:07;1.77;;;1.67;;
1593;SDS011;790;47.000;16.084;2023-04-25T05:35:34;1.80;;;1.70;;
1593;SDS011;790;47.000;16.084;2023-04-25T05:38:02;1.53;;;1.53;;
1593;SDS011;790;47.000;16.084;2023-04-25T05:40:31;1.73;;;1.63;;
1593;SDS011;790;47.000;16.084;2023-04-25T05:42:58;2.20;;;1.90;;
1593;SDS011;790;47.000;16.084;2023-04-25T05:45:26;1.70;;;1.60;;
1593;SDS011;790;47.000;16.084;2023-04-25T05:47:53;1.37;;;1.30;;
1593;SDS011;790;47.000;16.084;2023-04-25T05:50:20;4.10;;;1.57;;
1593;SDS011;790;47.000;16.084;2023-04-25T05:52:47;2.40;;;2.30;;
1593;SDS011;790;47.000;16.084;2023-04-25T05:55:14;1.80;;;1.70;;
1593;SDS011;790;47.000;16.084;2023-04-25T05:57:43;1.57;;;1.50;;
1593;SDS011;790;47.000;16.084;2023-04-25T06:00:11;1.80;;;1.70;;
1593;SDS011;790;47.000;16.084;2023-04-25T06:02:41;1.33;;;1.33;;
1593;SDS011;790;47.000;16.084;2023-04-25T06:05:08;2.70;;;1.40;;
1593;SDS011;790;47.000;16.084;2023-04-25T06:07:35;1.70;;;1.60;;
1593;SDS011;790;47.000;16.084;2023-04-25T06:10:03;1.50;;;1.40;;
1593;SDS011;790;47.000;16.084;2023-04-25T06:12:31;1.93;;;1.47;;
1593;SDS011;790;47.000;16.084;2023-04-25T06:15:00;2.10;;;1.47;;
1593;SDS011;790;47.000;16.084;2023-04-25T06:17:27;1.30;;;1.30;;
1593;SDS011;790;47.000;16.084;2023-04-25T06:19:54;2.27;;;1.50;;
1593;SDS011;790;47.000;16.084;2023-04-25T06:22:22;2.10;;;1.40;;
1593;SDS011;790;47.000;16.084;2023-04-25T06:24:49;1.33;;;1.33;;
1593;SDS011;790;47.000;16.084;2023-04-25T06:27:16;1.40;;;1.40;;
1593;SDS011;790;47.000;16.084;2023-04-25T06:29:43;1.70;;;1.60;;
1593;SDS011;790;47.000;16.084;2023-04-25T06:32:12;2.07;;;1.47;;
1593;SDS011;790;47.000;16.084;2023-04-25T06:34:39;1.60;;;1.30;;
1593;SDS011;790;47.000;16.084;2023-04-25T06:37:06;1.30;;;1.30;;
1593;SDS011;790;47.000;16.084;2023-04-25T06:39:33;1.40;;;1.30;;
1593;SDS011;790;47.000;16.084;2023-04-25T06:42:01;1.30;;;1.30;;
1593;SDS011;790;47.000;16.084;2023-04-25T06:44:28;1.17;;;1.17;;
1593;SDS011;790;47.000;16.084;2023-04-25T06:46:56;1.20;;;1.20;;
1593;SDS011;790;47.000;16.084;2023-04-25T06:49:24;1.10;;;1.10;;
1593;SDS011;790;47.000;16.084;2023-04-25T06:51:51;1.17;;;0.90;;
1593;SDS011;790;47.000;16.084;2023-04-25T06:54:18;1.47;;;1.37;;
1593;SDS011;790;47.000;16.084;2023-04-25T06:56:46;0.80;;;0.80;;
1593;SDS011;790;47.000;16.084;2023-04-25T06:59:13;0.80;;;0.80;;
1593;SDS011;790;47.000;16.084;2023-04-25T07:01:40;0.70;;;0.70;;
1593;SDS011;790;47.000;16.084;2023-04-25T07:04:07;0.80;;;0.80;;
1593;SDS011;790;47.000;16.084;2023-04-25T07:06:36;0.80;;;0.80;;
1593;SDS011;790;47.000;16.084;2023-04-25T07:09:07;0.80;;;0.80;;
1593;SDS011;790;47.000;16.084;2023-04-25T07:11:35;1.00;;;0.90;;
1593;SDS011;790;47.000;16.084;2023-04-25T07:14:03;0.83;;;0.80;;
1593;SDS011;790;47.000;16.084;2023-04-25T07:16:30;0.80;;;0.80;;
1593;SDS011;790;47.000;16.084;2023-04-25T07:18:57;0.77;;;0.77;;
1593;SDS011;790;47.000;16.084;2023-04-25T07:21:25;0.90;;;0.90;;
1593;SDS011;790;47.000;16.084;2023-04-25T07:23:54;1.60;;;0.80;;
1593;SDS011;790;47.000;16.084;2023-04-25T07:26:21;2.50;;;1.00;;
1593;SDS011;790;47.000;16.084;2023-04-25T07:28:49;0.70;;;0.70;;
1593;SDS011;790;47.000;16.084;2023-04-25T07:31:17;0.80;;;0.80;;
1593;SDS011;790;47.000;16.084;2023-04-25T07:33:45;0.80;;;0.80;;
1593;SDS011;790;47.000;16.084;2023-04-25T07:36:12;0.73;;;0.73;;
1593;SDS011;790;47.000;16.084;2023-04-25T07:38:40;1.63;;;1.10;;
1593;SDS011;790;47.000;16.084;2023-04-25T07:41:09;0.80;;;0.80;;
1593;SDS011;790;47.000;16.084;2023-04-25T07:43:36;0.80;;;0.80;;
1593;SDS011;790;47.000;16.084;2023-04-25T07:46:03;0.80;;;0.80;;
1593;SDS011;790;47.000;16.084;2023-04-25T07:48:31;0.60;;;0.60;;
1593;SDS011;790;47.000;16.084;2023-04-25T07:50:58;0.90;;;0.90;;
1593;SDS011;790;47.000;16.084;2023-04-25T07:53:25;0.70;;;0.67;;
1593;SDS011;790;47.000;16.084;2023-04-25T07:55:53;0.60;;;0.60;;
1593;SDS011;790;47.000;16.084;2023-04-25T07:58:21;0.87;;;0.87;;
1593;SDS011;790;47.000;16.084;2023-04-25T08:00:49;2.17;;;0.87;;
1593;SDS011;790;47.000;16.084;2023-04-25T08:03:16;1.43;;;0.70;;
1593;SDS011;790;47.000;16.084;2023-04-25T08:05:43;0.70;;;0.70;;
1593;SDS011;790;47.000;16.084;2023-04-25T08:08:10;0.93;;;0.93;;
1593;SDS011;790;47.000;16.084;2023-04-25T08:10:37;3.03;;;2.10;;
1593;SDS011;790;47.000;16.084;2023-04-25T08:13:05;0.90;;;0.90;;
1593;SDS011;790;47.000;16.084;2023-04-25T08:15:33;1.03;;;0.90;;
1593;SDS011;790;47.000;16.084;2023-04-25T08:18:01;1.13;;;0.90;;
1593;SDS011;790;47.000;16.084;2023-04-25T08:20:28;1.40;;;0.80;;
1593;SDS011;790;47.000;16.084;2023-04-25T08:22:55;0.80;;;0.80;;
1593;SDS011;790;47.000;16.084;2023-04-25T08:25:22;0.93;;;0.80;;
1593;SDS011;790;47.000;16.084;2023-04-25T08:27:49;1.20;;;1.20;;
1593;SDS011;790;47.000;16.084;2023-04-25T08:30:17;1.53;;;1.00;;
1593;SDS011;790;47.000;16.084;2023-04-25T08:32:45;1.03;;;0.97;;
1593;SDS011;790;47.000;16.084;2023-04-25T08:35:13;1.03;;;0.73;;
1593;SDS011;790;47.000;16.084;2023-04-25T08:37:41;0.77;;;0.77;;
1593;SDS011;790;47.000;16.084;2023-04-25T08:40:08;0.97;;;0.80;;
1593;SDS011;790;47.000;16.084;2023-04-25T08:42:41;1.43;;;0.80;;
1593;SDS011;790;47.000;16.084;2023-04-25T08:45:09;1.00;;;0.90;;
1593;SDS011;790;47.000;16.084;2023-04-25T08:47:37;1.10;;;1.10;;
1593;SDS011;790;47.000;16.084;2023-04-25T08:50:08;1.53;;;0.90;;
1593;SDS011;790;47.000;16.084;2023-04-25T08:52:36;1.33;;;0.90;;
1593;SDS011;790;47.000;16.084;2023-04-25T08:55:06;1.13;;;1.03;;
1593;SDS011;790;47.000;16.084;2023-04-25T08:57:38;0.93;;;0.93;;
1593;SDS011;790;47.000;16.084;2023-04-25T09:00:08;0.90;;;0.90;;
1593;SDS011;790;47.000;16.084;2023-04-25T09:02:37;1.50;;;0.93;;
1593;SDS011;790;47.000;16.084;2023-04-25T09:05:05;0.93;;;0.70;;
1593;SDS011;790;47.000;16.084;2023-04-25T09:07:36;1.33;;;1.03;;
1593;SDS011;790;47.000;16.084;2023-04-25T09:10:03;0.90;;;0.90;;
1593;SDS011;790;47.000;16.084;2023-04-25T09:12:31;1.70;;;1.00;;
1593;SDS011;790;47.000;16.084;2023-04-25T09:15:05;1.33;;;0.90;;
1593;SDS011;790;47.000;16.084;2023-04-25T09:17:34;2.97;;;0.83;;
1593;SDS011;790;47.000;16.084;2023-04-25T09:20:06;1.13;;;0.90;;
1593;SDS011;790;47.000;16.084;2023-04-25T09:22:37;1.03;;;1.03;;
1593;SDS011;790;47.000;16.084;2023-04-25T09:25:07;1.03;;;1.00;;
1593;SDS011;790;47.000;16.084;2023-04-25T09:27:35;1.07;;;1.07;;
1593;SDS011;790;47.000;16.084;2023-04-25T09:30:03;1.53;;;0.80;;
1593;SDS011;790;47.000;16.084;2023-04-25T09:32:31;0.97;;;0.97;;
1593;SDS011;790;47.000;16.084;2023-04-25T09:34:58;0.97;;;0.97;;
1593;SDS011;790;47.000;16.084;2023-04-25T09:37:28;0.90;;;0.90;;
1593;SDS011;790;47.000;16.084;2023-04-25T09:39:57;1.93;;;0.90;;
1593;SDS011;790;47.000;16.084;2023-04-25T09:42:29;1.37;;;0.80;;
1593;SDS011;790;47.000;16.084;2023-04-25T09:44:57;0.90;;;0.90;;
1593;SDS011;790;47.000;16.084;2023-04-25T09:47:27;0.90;;;0.90;;
1593;SDS011;790;47.000;16.084;2023-04-25T09:49:54;1.27;;;0.93;;
1593;SDS011;790;47.000;16.084;2023-04-25T09:52:22;1.67;;;1.00;;
1593;SDS011;790;47.000;16.084;2023-04-25T09:54:53;1.07;;;1.07;;
1593;SDS011;790;47.000;16.084;2023-04-25T09:57:21;2.10;;;1.27;;
1593;SDS011;790;47.000;16.084;2023-04-25T09:59:49;2.77;;;1.10;;
1593;SDS011;790;47.000;16.084;2023-04-25T10:02:18;0.80;;;0.80;;
1593;SDS011;790;47.000;16.084;2023-04-25T10:04:47;1.97;;;1.00;;
1593;SDS011;790;47.000;16.084;2023-04-25T10:07:18;2.83;;;2.03;;
1593;SDS011;790;47.000;16.084;2023-04-25T10:09:47;1.73;;;0.90;;
1593;SDS011;790;47.000;16.084;2023-04-25T10:12:17;1.00;;;1.00;;
1593;SDS011;790;47.000;16.084;2023-04-25T10:14:45;0.77;;;0.77;;
1593;SDS011;790;47.000;16.084;2023-04-25T10:17:15;0.70;;;0.70;;
1593;SDS011;790;47.000;16.084;2023-04-25T10:19:43;1.20;;;1.10;;
1593;SDS011;790;47.000;16.084;2023-04-25T10:22:12;0.97;;;0.90;;
1593;SDS011;790;47.000;16.084;2023-04-25T10:24:43;0.80;;;0.80;;
1593;SDS011;790;47.000;16.084;2023-04-25T10:27:12;1.93;;;1.00;;
1593;SDS011;790;47.000;16.084;2023-04-25T10:29:42;1.23;;;1.23;;
1593;SDS011;790;47.000;16.084;2023-04-25T10:32:10;1.10;;;1.10;;
1593;SDS011;790;47.000;16.084;2023-04-25T10:34:37;0.70;;;0.70;;
1593;SDS011;790;47.000;16.084;2023-04-25T10:37:08;0.70;;;0.70;;
1593;SDS011;790;47.000;16.084;2023-04-25T10:39:37;1.13;;;1.08;;
1593;SDS011;790;47.000;16.084;2023-04-25T10:42:06;0.80;;;0.80;;
1593;SDS011;790;47.000;16.084;2023-04-25T10:44:36;1.95;;;1.38;;
1593;SDS011;790;47.000;16.084;2023-04-25T10:47:06;3.35;;;1.50;;
1593;SDS011;790;47.000;16.084;2023-04-25T10:49:35;0.82;;;0.82;;
1593;SDS011;790;47.000;16.084;2023-04-25T10:52:14;2.95;;;1.23;;
1593;SDS011;790;47.000;16.084;2023-04-25T10:54:51;1.02;;;1.02;;
1593;SDS011;790;47.000;16.084;2023-04-25T10:57:26;1.02;;;1.00;;
1593;SDS011;790;47.000;16.084;2023-04-25T11:00:00;2.15;;;0.95;;
1593;SDS011;790;47.000;16.084;2023-04-25T11:02:31;1.60;;;1.10;;
1593;SDS011;790;47.000;16.084;2023-04-25T11:05:03;1.45;;;1.10;;
1593;SDS011;790;47.000;16.084;2023-04-25T11:07:33;1.20;;;1.10;;
1593;SDS011;790;47.000;16.084;2023-04-25T11:10:04;2.53;;;1.45;;
1593;SDS011;790;47.000;16.084;2023-04-25T11:12:33;1.30;;;0.90;;
1593;SDS011;790;47.000;16.084;2023-04-25T11:15:01;1.20;;;1.10;;
1593;SDS011;790;47.000;16.084;2023-04-25T11:17:29;1.92;;;1.77;;
1593;SDS011;790;47.000;16.084;2023-04-25T11:19:58;1.75;;;1.65;;
1593;SDS011;790;47.000;16.084;2023-04-25T11:22:26;1.10;;;1.10;;
1593;SDS011;790;47.000;16.084;2023-04-25T11:24:53;2.08;;;1.98;;
1593;SDS011;790;47.000;16.084;2023-04-25T11:27:21;1.02;;;0.93;;
1593;SDS011;790;47.000;16.084;2023-04-25T11:29:50;0.98;;;0.88;;
1593;SDS011;790;47.000;16.084;2023-04-25T11:32:17;2.95;;;2.05;;
1593;SDS011;790;47.000;16.084;2023-04-25T11:34:45;2.42;;;0.90;;
1593;SDS011;790;47.000;16.084;2023-04-25T11:37:15;3.13;;;0.90;;
1593;SDS011;790;47.000;16.084;2023-04-25T11:39:43;0.90;;;0.90;;
1593;SDS011;790;47.000;16.084;2023-04-25T11:42:11;1.30;;;1.02;;
1593;SDS011;790;47.000;16.084;2023-04-25T11:44:39;1.95;;;0.90;;
1593;SDS011;790;47.000;16.084;2023-04-25T11:47:06;2.80;;;1.08;;
1593;SDS011;790;47.000;16.084;2023-04-25T11:49:34;0.70;;;0.70;;
1593;SDS011;790;47.000;16.084;2023-04-25T11:52:02;1.13;;;1.02;;
1593;SDS011;790;47.000;16.084;2023-04-25T11:54:31;1.02;;;1.02;;
1593;SDS011;790;47.000;16.084;2023-04-25T11:57:01;0.77;;;0.77;;
1593;SDS011;790;47.000;16.084;2023-04-25T11:59:28;1.10;;;1.10;;
1593;SDS011;790;47.000;16.084;2023-04-25T12:01:56;1.00;;;0.82;;
1593;SDS011;790;47.000;16.084;2023-04-25T12:04:24;0.90;;;0.90;;
1593;SDS011;790;47.000;16.084;2023-04-25T12:06:52;0.95;;;0.95;;
1593;SDS011;790;47.000;16.084;2023-04-25T12:09:23;2.65;;;1.00;;
1593;SDS011;790;47.000;16.084;2023-04-25T12:11:57;0.90;;;0.90;;
1593;SDS011;790;47.000;16.084;2023-04-25T12:14:28;1.83;;;1.73;;
1593;SDS011;790;47.000;16.084;2023-04-25T12:16:57;0.90;;;0.90;;
1593;SDS011;790;47.000;16.084;2023-04-25T12:19:25;1.35;;;1.23;;
1593;SDS011;790;47.000;16.084;2023-04-25T12:21:53;0.98;;;0.98;;
1593;SDS011;790;47.000;16.084;2023-04-25T12:24:21;1.10;;;1.10;;
1593;SDS011;790;47.000;16.084;2023-04-25T12:26:51;2.40;;;1.10;;
1593;SDS011;790;47.000;16.084;2023-04-25T12:29:21;5.03;;;0.98;;
1593;SDS011;790;47.000;16.084;2023-04-25T12:31:51;2.05;;;0.82;;
1593;SDS011;790;47.000;16.084;2023-04-25T12:34:20;1.20;;;1.20;;
1593;SDS011;790;47.000;16.084;2023-04-25T12:36:48;1.23;;;1.13;;
1593;SDS011;790;47.000;16.084;2023-04-25T12:39:16;0.93;;;0.88;;
1593;SDS011;790;47.000;16.084;2023-04-25T12:41:44;0.93;;;0.93;;
1593;SDS011;790;47.000;16.084;2023-04-25T12:44:12;1.25;;;1.15;;
1593;SDS011;790;47.000;16.084;2023-04-25T12:46:41;1.23;;;1.15;;
1593;SDS011;790;47.000;16.084;2023-04-25T12:49:08;1.95;;;1.17;;
1593;SDS011;790;47.000;16.084;2023-04-25T12:51:36;1.27;;;1.17;;
1593;SDS011;790;47.000;16.084;2023-04-25T12:54:04;1.52;;;1.00;;
1593;SDS011;790;47.000;16.084;2023-04-25T12:56:32;0.70;;;0.70;;
1593;SDS011;790;47.000;16.084;2023-04-25T12:59:00;1.48;;;1.13;;
1593;SDS011;790;47.000;16.084;2023-04-25T13:01:28;2.53;;;0.90;;
1593;SDS011;790;47.000;16.084;2023-04-25T13:03:59;1.38;;;1.30;;
1593;SDS011;790;47.000;16.084;2023-04-25T13:06:26;1.55;;;0.85;;
1593;SDS011;790;47.000;16.084;2023-04-25T13:08:55;1.25;;;1.10;;
1593;SDS011;790;47.000;16.084;2023-04-25T13:11:22;1.30;;;1.10;;
1593;SDS011;790;47.000;16.084;2023-04-25T13:13:49;0.90;;;0.90;;
1593;SDS011;790;47.000;16.084;2023-04-25T13:16:18;2.83;;;1.63;;
1593;SDS011;790;47.000;16.084;2023-04-25T13:18:47;3.55;;;1.00;;
1593;SDS011;790;47.000;16.084;2023-04-25T13:21:16;1.27;;;0.90;;
1593;SDS011;790;47.000;16.084;2023-04-25T13:23:43;1.73;;;1.63;;
1593;SDS011;790;47.000;16.084;2023-04-25T13:26:11;2.33;;;1.00;;
1593;SDS011;790;47.000;16.084;2023-04-25T13:28:38;3.45;;;0.90;;
1593;SDS011;790;47.000;16.084;2023-04-25T13:31:07;0.90;;;0.90;;
1593;SDS011;790;47.000;16.084;2023-04-25T13:33:34;1.00;;;1.00;;
1593;SDS011;790;47.000;16.084;2023-04-25T13:36:02;2.70;;;1.10;;
1593;SDS011;790;47.000;16.084;2023-04-25T13:38:31;1.65;;;1.10;;
1593;SDS011;790;47.000;16.084;2023-04-25T13:40:58;1.83;;;1.00;;
1593;SDS011;790;47.000;16.084;2023-04-25T13:43:26;1.13;;;1.02;;
1593;SDS011;790;47.000;16.084;2023-04-25T13:45:54;0.82;;;0.82;;
1593;SDS011;790;47.000;16.084;2023-04-25T13:48:21;1.73;;;0.90;;
1593;SDS011;790;47.000;16.084;2023-04-25T13:50:52;1.42;;;0.85;;
1593;SDS011;790;47.000;16.084;2023-04-25T13:53:19;1.70;;;0.95;;
1593;SDS011;790;47.000;16.084;2023-04-25T13:55:48;0.80;;;0.80;;
1593;SDS011;790;47.000;16.084;2023-04-25T13:58:15;0.90;;;0.90;;
1593;SDS011;790;47.000;16.084;2023-04-25T14:00:42;1.55;;;0.80;;
1593;SDS011;790;47.000;16.084;2023-04-25T14:03:11;1.77;;;1.27;;
1593;SDS011;790;47.000;16.084;2023-04-25T14:05:39;0.93;;;0.90;;
1593;SDS011;790;47.000;16.084;2023-04-25T14:08:06;2.47;;;1.77;;
1593;SDS011;790;47.000;16.084;2023-04-25T14:10:36;1.02;;;1.02;;
1593;SDS011;790;47.000;16.084;2023-04-25T14:13:07;3.15;;;2.00;;
1593;SDS011;790;47.000;16.084;2023-04-25T14:15:35;1.15;;;1.05;;
1593;SDS011;790;47.000;16.084;2023-04-25T14:18:03;1.10;;;0.90;;
1593;SDS011;790;47.000;16.084;2023-04-25T14:20:30;1.80;;;0.80;;
1593;SDS011;790;47.000;16.084;2023-04-25T14:22:58;1.95;;;1.77;;
1593;SDS011;790;47.000;16.084;2023-04-25T14:25:27;5.32;;;4.00;;
1593;SDS011;790;47.000;16.084;2023-04-25T14:27:54;3.53;;;1.20;;
1593;SDS011;790;47.000;16.084;2023-04-25T14:30:23;1.95;;;1.10;;
1593;SDS011;790;47.000;16.084;2023-04-25T14:32:50;0.82;;;0.73;;
1593;SDS011;790;47.000;16.084;2023-04-25T14:35:17;0.90;;;0.90;;
1593;SDS011;790;47.000;16.084;2023-04-25T14:37:46;1.77;;;0.88;;
1593;SDS011;790;47.000;16.084;2023-04-25T14:40:13;1.67;;;1.58;;
1593;SDS011;790;47.000;16.084;2023-04-25T14:42:42;1.88;;;1.05;;
1593;SDS011;790;47.000;16.084;2023-04-25T14:45:09;1.58;;;1.00;;
1593;SDS011;790;47.000;16.084;2023-04-25T14:47:38;0.85;;;0.75;;
1593;SDS011;790;47.000;16.084;2023-04-25T14:50:08;1.38;;;1.27;;
1593;SDS011;790;47.000;16.084;2023-04-25T14:52:36;1.20;;;0.90;;
1593;SDS011;790;47.000;16.084;2023-04-25T14:55:03;1.55;;;1.23;;
1593;SDS011;790;47.000;16.084;2023-04-25T14:57:32;0.90;;;0.90;;
1593;SDS011;790;47.000;16.084;2023-04-25T15:00:00;1.98;;;0.90;;
1593;SDS011;790;47.000;16.084;2023-04-25T15:02:30;0.90;;;0.90;;
1593;SDS011;790;47.000;16.084;2023-04-25T15:04:59;0.80;;;0.80;;
1593;SDS011;790;47.000;16.084;2023-04-25T15:07:27;1.75;;;0.82;;
1593;SDS011;790;47.000;16.084;2023-04-25T15:09:54;0.98;;;0.90;;
1593;SDS011;790;47.000;16.084;2023-04-25T15:12:21;1.20;;;1.10;;
1593;SDS011;790;47.000;16.084;2023-04-25T15:14:51;1.47;;;1.47;;
1593;SDS011;790;47.000;16.084;2023-04-25T15:17:18;1.87;;;1.77;;
1593;SDS011;790;47.000;16.084;2023-04-25T15:19:45;3.33;;;2.00;;